Flight Briefing for CMB826

Departure Arrival
Travis Air Force Base (KSUU)
Click to view FAA NOTAMS
Daniel K Inouye International Airport (PHNL)
Click to view FAA NOTAMS
Departure Time Arrival Time
N/A N/A
Aircraft Distance
B757-200SF 2117nm
Departure METAR Arrival METAR
KSUU 260958Z AUTO 20005KT 10SM SCT044 OVC055 11/10 A3005 RMK AO2 SLP183 T01070095 $ PHNL 260953Z 07011KT 10SM CLR 23/17 A3009 RMK AO2 SLP190 T02330172 402780222
Suggested Route
BESSA PYE BEBOP R464 BITTA


View recent IFR Routes data
Notes
USTRANSCOM CONTRACT FLIGHT

Charts and Procedures

Charts for KSUU
No chart available
Charts for PHNL
No chart available

Windy.com Weather Map